Time;durP1;ratioP1;P1;durP2;ratioP2;P2;SDS_P1;SDS_P2;PMS_P1;PMS_P2;Temp;Humidity;BMP_temperature;BMP_pressure;BME280_temperature;BME280_humidity;BME280_pressure;Samples;Min_cycle;Max_cycle;Signal;HPM_P1;HPM_P2
2022/05/26 00:01:13;;;;;;;1.25;1.15;;;11.50;99.90;;;;;;4994734;28;20407;-79
2022/05/26 00:03:41;;;;;;;1.48;0.75;;;11.40;99.90;;;;;;5019136;28;20146;-79
2022/05/26 00:06:09;;;;;;;0.93;0.70;;;11.40;99.90;;;;;;5023045;28;20033;-79
2022/05/26 00:08:36;;;;;;;0.85;0.63;;;11.40;99.90;;;;;;4971355;28;20034;-79
2022/05/26 00:11:08;;;;;;;0.65;0.60;;;11.30;99.90;;;;;;5014359;28;20026;-79
2022/05/26 00:13:36;;;;;;;1.17;1.00;;;11.30;99.90;;;;;;5016018;28;20025;-79
2022/05/26 00:16:02;;;;;;;0.70;0.70;;;11.30;99.90;;;;;;5009672;28;20441;-79
2022/05/26 00:18:27;;;;;;;0.95;0.75;;;11.30;99.90;;;;;;5023307;28;20402;-79
2022/05/26 00:20:53;;;;;;;1.15;0.70;;;11.30;99.90;;;;;;5024307;28;20028;-79
2022/05/26 00:23:18;;;;;;;1.13;0.73;;;11.20;99.90;;;;;;5028583;28;20381;-79
2022/05/26 00:25:45;;;;;;;1.10;1.10;;;11.20;99.90;;;;;;4987058;28;20400;-79
2022/05/26 00:28:10;;;;;;;0.50;0.50;;;11.20;99.90;;;;;;5015026;28;20113;-79
2022/05/26 00:30:37;;;;;;;0.68;0.68;;;11.20;99.90;;;;;;4996440;28;20454;-79
2022/05/26 00:33:05;;;;;;;1.70;0.70;;;11.20;99.90;;;;;;4998138;28;20026;-79
2022/05/26 00:35:34;;;;;;;0.70;0.57;;;11.30;99.90;;;;;;5000337;28;20041;-78
2022/05/26 00:38:04;;;;;;;1.40;0.47;;;11.30;99.90;;;;;;5020075;28;20042;-79
2022/05/26 00:40:31;;;;;;;0.55;0.40;;;11.40;99.90;;;;;;5019552;28;20038;-79
2022/05/26 00:42:58;;;;;;;1.45;0.70;;;11.40;99.90;;;;;;4990601;28;20037;-79
2022/05/26 00:45:29;;;;;;;0.98;0.70;;;11.50;99.90;;;;;;5023349;28;20387;-78
2022/05/26 00:47:55;;;;;;;1.23;0.75;;;11.50;99.90;;;;;;5009722;28;20120;-79
2022/05/26 00:50:24;;;;;;;0.60;0.60;;;11.60;99.90;;;;;;5025280;28;20753;-79
2022/05/26 00:52:57;;;;;;;0.73;0.50;;;11.60;99.90;;;;;;5020411;28;20032;-79
2022/05/26 00:55:38;;;;;;;2.35;0.70;;;11.70;99.90;;;;;;5023433;28;20087;-79
2022/05/26 00:58:20;;;;;;;0.50;0.47;;;11.70;99.90;;;;;;5016458;28;20392;-78
2022/05/26 01:00:47;;;;;;;1.60;0.73;;;11.80;99.90;;;;;;4998830;28;20030;-79
2022/05/26 01:03:28;;;;;;;3.90;0.70;;;11.80;99.90;;;;;;4989427;28;20042;-80
2022/05/26 01:06:06;;;;;;;0.43;0.40;;;11.80;99.90;;;;;;5006087;28;20030;-81
2022/05/26 01:08:43;;;;;;;0.93;0.60;;;11.90;99.90;;;;;;5004281;28;20026;-80
2022/05/26 01:11:10;;;;;;;1.05;0.60;;;11.90;99.90;;;;;;4996255;28;20030;-80
2022/05/26 01:13:43;;;;;;;1.08;0.65;;;11.90;99.90;;;;;;5020417;28;20793;-79
2022/05/26 01:16:47;;;;;;;0.73;0.43;;;11.90;99.90;;;;;;5018814;28;20030;-80
2022/05/26 01:19:31;;;;;;;0.43;0.40;;;11.90;99.90;;;;;;4968752;28;20045;-79
2022/05/26 01:22:06;;;;;;;1.52;0.47;;;11.90;99.90;;;;;;5011384;28;20049;-80
2022/05/26 01:25:10;;;;;;;0.50;0.47;;;11.90;99.90;;;;;;5013629;28;20049;-79
2022/05/26 01:27:37;;;;;;;0.95;0.50;;;12.00;99.90;;;;;;5001659;28;20044;-80
2022/05/26 01:30:09;;;;;;;2.13;0.55;;;12.00;99.90;;;;;;5020272;28;20407;-80
2022/05/26 01:32:47;;;;;;;1.00;0.65;;;12.00;99.90;;;;;;5005976;28;20025;-80
2022/05/26 01:35:24;;;;;;;1.70;0.40;;;12.00;99.90;;;;;;5002405;28;20030;-79
2022/05/26 01:38:13;;;;;;;2.03;0.98;;;12.00;99.90;;;;;;5011424;28;20038;-79
2022/05/26 01:41:09;;;;;;;0.50;0.50;;;12.00;99.90;;;;;;5015149;28;20041;-79
2022/05/26 01:43:48;;;;;;;0.60;0.50;;;12.00;99.90;;;;;;5031718;28;20076;-79
2022/05/26 01:46:36;;;;;;;0.43;0.43;;;12.00;99.90;;;;;;4999542;28;20030;-79
2022/05/26 01:49:09;;;;;;;0.52;0.50;;;12.00;99.90;;;;;;5007593;28;20041;-80
2022/05/26 01:51:40;;;;;;;2.85;0.60;;;12.00;99.90;;;;;;5003615;28;20366;-79
2022/05/26 01:54:18;;;;;;;1.60;0.73;;;12.00;99.90;;;;;;4985389;28;20034;-79
2022/05/26 01:56:49;;;;;;;0.55;0.55;;;12.00;99.90;;;;;;5003860;28;20034;-79
2022/05/26 01:59:38;;;;;;;0.60;0.50;;;12.00;99.90;;;;;;5000523;28;20034;-80
2022/05/26 02:02:13;;;;;;;1.00;0.50;;;11.90;99.90;;;;;;4999313;28;20030;-79
2022/05/26 02:04:49;;;;;;;2.20;0.60;;;12.00;99.90;;;;;;4992249;28;20044;-79
2022/05/26 02:07:34;;;;;;;2.70;0.93;;;12.00;99.90;;;;;;5024929;28;20287;-79
2022/05/26 02:10:03;;;;;;;;;;;12.00;99.90;;;;;;5017170;28;20129;-79
2022/05/26 02:12:36;;;;;;;0.40;0.40;;;11.90;99.90;;;;;;5021532;28;20376;-79
2022/05/26 02:15:28;;;;;;;1.60;0.70;;;11.90;99.90;;;;;;5034617;28;20022;-79
2022/05/26 02:18:07;;;;;;;0.50;0.40;;;11.90;99.90;;;;;;5024073;28;20061;-79
2022/05/26 02:20:54;;;;;;;2.38;0.55;;;11.90;99.90;;;;;;5013936;28;20036;-80
2022/05/26 02:23:35;;;;;;;1.30;0.65;;;11.90;99.90;;;;;;4997690;28;20047;-79
2022/05/26 02:26:02;;;;;;;0.55;0.35;;;11.90;99.90;;;;;;5004862;28;20480;-79
2022/05/26 02:29:50;;;;;;;0.93;0.70;;;11.90;99.90;;;;;;5021590;28;20455;-79
2022/05/26 02:31:18;;;;;;;1.17;0.60;;;11.90;99.90;;;;;;4999828;28;20117;-80
2022/05/26 02:33:44;;;;;;;0.70;0.60;;;11.90;99.90;;;;;;4992411;28;20094;-78
2022/05/26 02:36:10;;;;;;;1.17;0.50;;;11.90;99.90;;;;;;5014840;28;20034;-80
2022/05/26 02:38:36;;;;;;;1.92;0.70;;;11.90;99.90;;;;;;4996621;28;20046;-79
2022/05/26 02:41:02;;;;;;;0.65;0.47;;;11.90;99.90;;;;;;5018010;28;20029;-78
2022/05/26 02:43:29;;;;;;;1.95;0.70;;;11.90;99.90;;;;;;5024692;28;20038;-79
2022/05/26 02:46:23;;;;;;;0.60;0.60;;;11.90;99.90;;;;;;5019281;28;20037;-79
2022/05/26 02:49:27;;;;;;;1.75;0.70;;;11.90;99.90;;;;;;4981553;28;20031;-80
2022/05/26 02:52:17;;;;;;;2.13;0.75;;;11.90;99.90;;;;;;5000580;28;20035;-79
2022/05/26 02:55:10;;;;;;;0.80;0.68;;;11.90;99.90;;;;;;4980718;28;20477;-78
2022/05/26 02:57:57;;;;;;;1.48;0.40;;;11.90;99.90;;;;;;5014277;28;20026;-79
2022/05/26 03:00:59;;;;;;;0.60;0.40;;;11.90;99.90;;;;;;4999514;28;20116;-79
2022/05/26 03:03:41;;;;;;;0.88;0.47;;;11.90;99.90;;;;;;5014485;28;20785;-79
2022/05/26 03:06:08;;;;;;;0.95;0.50;;;11.90;99.90;;;;;;5004322;28;20022;-78
2022/05/26 03:08:39;;;;;;;0.47;0.47;;;11.90;99.90;;;;;;4999798;28;20072;-79
2022/05/26 03:11:10;;;;;;;0.60;0.60;;;11.90;99.90;;;;;;4981341;28;20053;-79
2022/05/26 03:13:36;;;;;;;1.33;0.50;;;11.90;99.90;;;;;;5013762;28;20065;-80
2022/05/26 03:16:03;;;;;;;0.50;0.50;;;11.90;99.90;;;;;;5002986;28;20076;-79
2022/05/26 03:18:30;;;;;;;2.63;0.50;;;11.90;99.90;;;;;;5007348;28;20128;-79
2022/05/26 03:21:04;;;;;;;1.17;0.82;;;11.90;99.90;;;;;;4993873;28;20088;-80
2022/05/26 03:23:30;;;;;;;0.55;0.50;;;11.90;99.90;;;;;;4979726;28;20519;-78
2022/05/26 03:25:57;;;;;;;0.60;0.55;;;11.90;99.90;;;;;;5015532;28;20091;-79
2022/05/26 03:28:27;;;;;;;1.17;0.55;;;11.90;99.90;;;;;;5026912;28;20045;-79
2022/05/26 03:30:54;;;;;;;0.50;0.50;;;11.80;99.90;;;;;;4987076;28;20033;-79
2022/05/26 03:33:20;;;;;;;0.63;0.47;;;11.80;99.90;;;;;;5010069;28;20392;-78
2022/05/26 03:41:19;;;;;;;1.33;0.50;;;11.80;99.90;;;;;;5018522;28;20029;-79
2022/05/26 03:43:49;;;;;;;1.42;0.32;;;11.80;99.90;;;;;;5019408;28;20068;-79
2022/05/26 03:46:15;;;;;;;1.08;0.60;;;11.90;99.90;;;;;;5017841;28;20053;-80
2022/05/26 03:48:41;;;;;;;0.47;0.38;;;11.90;99.90;;;;;;4999839;28;20030;-79
2022/05/26 03:51:08;;;;;;;0.60;0.60;;;11.90;99.90;;;;;;4992503;28;20143;-79
2022/05/26 03:53:34;;;;;;;1.40;1.05;;;11.80;99.90;;;;;;5014119;28;20022;-80
2022/05/26 03:56:04;;;;;;;0.82;0.82;;;11.90;99.90;;;;;;4998113;28;20038;-79
2022/05/26 03:58:31;;;;;;;0.50;0.35;;;11.90;99.90;;;;;;5015537;28;20125;-79
2022/05/26 04:01:02;;;;;;;0.75;0.50;;;11.90;99.90;;;;;;5015667;28;20041;-79
2022/05/26 04:03:28;;;;;;;2.03;0.47;;;11.90;99.90;;;;;;5019699;28;20498;-77
2022/05/26 04:05:53;;;;;;;2.38;0.63;;;11.90;99.90;;;;;;4986638;28;20030;-79
2022/05/26 04:08:19;;;;;;;0.52;0.50;;;11.90;99.90;;;;;;5029030;28;20124;-79
2022/05/26 04:10:45;;;;;;;0.80;0.60;;;12.00;99.90;;;;;;4981569;28;20041;-80
2022/05/26 04:13:11;;;;;;;0.65;0.60;;;12.00;99.90;;;;;;4985884;28;20117;-80
2022/05/26 04:15:37;;;;;;;0.77;0.60;;;12.10;99.90;;;;;;5001733;28;20293;-79
2022/05/26 04:18:02;;;;;;;2.25;0.40;;;12.10;99.90;;;;;;5021922;28;20022;-80
2022/05/26 04:20:28;;;;;;;1.02;0.57;;;12.20;99.90;;;;;;4988532;28;20504;-80
2022/05/26 04:22:54;;;;;;;0.45;0.45;;;12.20;99.90;;;;;;5019051;28;20438;-77
2022/05/26 04:25:22;;;;;;;2.35;0.50;;;12.20;99.90;;;;;;5003291;28;20053;-80
2022/05/26 04:27:48;;;;;;;0.80;0.50;;;12.20;99.90;;;;;;5021473;28;20081;-79
2022/05/26 04:30:14;;;;;;;0.65;0.50;;;12.20;99.90;;;;;;4992523;28;20037;-79
2022/05/26 04:32:41;;;;;;;3.00;0.55;;;12.20;99.90;;;;;;5034182;28;20025;-80
2022/05/26 04:35:09;;;;;;;2.25;0.57;;;12.20;99.90;;;;;;5024708;28;20056;-79
2022/05/26 04:37:35;;;;;;;0.82;0.47;;;12.20;99.90;;;;;;5026854;28;20034;-78
2022/05/26 04:40:01;;;;;;;0.43;0.43;;;12.10;99.90;;;;;;5019332;28;20496;-79
2022/05/26 04:42:29;;;;;;;0.82;0.60;;;12.20;99.90;;;;;;4990771;28;20069;-78
2022/05/26 04:44:55;;;;;;;0.60;0.50;;;12.20;99.90;;;;;;4990275;28;20030;-79
2022/05/26 04:47:21;;;;;;;0.50;0.47;;;12.20;99.90;;;;;;4983055;28;20117;-77
2022/05/26 04:49:46;;;;;;;0.47;0.40;;;12.30;99.90;;;;;;4998099;28;20045;-79
2022/05/26 04:52:16;;;;;;;0.50;0.40;;;12.40;99.90;;;;;;5015695;28;20038;-79
2022/05/26 04:54:42;;;;;;;0.55;0.50;;;12.50;99.90;;;;;;4996829;28;20488;-79
2022/05/26 04:57:09;;;;;;;0.52;0.50;;;12.60;99.90;;;;;;5003292;28;20030;-79
2022/05/26 04:59:35;;;;;;;1.13;0.80;;;12.70;99.90;;;;;;4996880;28;20048;-79
2022/05/26 05:02:01;;;;;;;1.77;0.50;;;12.80;99.90;;;;;;5003310;28;20092;-79
2022/05/26 05:04:28;;;;;;;0.85;0.57;;;12.80;99.90;;;;;;5000937;28;20056;-79
2022/05/26 05:06:54;;;;;;;1.33;0.70;;;12.80;99.90;;;;;;5021944;28;20026;-79
2022/05/26 05:09:21;;;;;;;0.90;0.45;;;12.90;99.90;;;;;;5019504;28;20069;-79
2022/05/26 05:11:48;;;;;;;0.52;0.43;;;12.90;99.90;;;;;;5001246;28;20030;-79
2022/05/26 05:14:14;;;;;;;0.43;0.43;;;12.90;99.90;;;;;;4999308;28;20045;-79
2022/05/26 05:16:42;;;;;;;1.33;0.63;;;13.00;99.90;;;;;;5010177;28;20042;-79
2022/05/26 05:19:09;;;;;;;0.50;0.50;;;13.10;99.90;;;;;;5009988;28;20041;-78
2022/05/26 05:21:50;;;;;;;0.50;0.50;;;13.10;99.90;;;;;;4989234;28;20038;-79
2022/05/26 05:24:39;;;;;;;0.60;0.60;;;13.20;99.90;;;;;;5015128;28;20079;-78
2022/05/26 05:27:11;;;;;;;0.90;0.55;;;13.20;99.90;;;;;;4999936;28;20046;-79
2022/05/26 05:29:40;;;;;;;0.75;0.60;;;13.30;99.90;;;;;;5007113;28;20120;-79
2022/05/26 05:32:19;;;;;;;0.60;0.40;;;13.40;99.90;;;;;;5027564;28;20028;-78
2022/05/26 05:34:49;;;;;;;1.08;0.50;;;13.40;99.90;;;;;;5021051;28;20034;-78
2022/05/26 05:37:15;;;;;;;1.00;0.40;;;13.50;99.90;;;;;;5017458;28;20049;-78
2022/05/26 05:39:41;;;;;;;1.08;0.52;;;13.60;99.90;;;;;;4998355;28;20084;-78
2022/05/26 05:42:07;;;;;;;1.45;1.02;;;13.60;99.90;;;;;;5005912;28;20534;-78
2022/05/26 05:44:33;;;;;;;0.65;0.50;;;13.80;99.90;;;;;;5006599;28;20097;-79
2022/05/26 05:47:01;;;;;;;0.40;0.40;;;13.90;99.90;;;;;;5021524;28;20112;-78
2022/05/26 05:49:29;;;;;;;1.95;0.50;;;14.10;99.90;;;;;;5016223;28;20128;-78
2022/05/26 05:52:08;;;;;;;0.77;0.40;;;14.10;99.90;;;;;;5015958;28;20026;-77
2022/05/26 05:54:33;;;;;;;0.63;0.50;;;14.20;99.90;;;;;;5012564;28;20077;-78
2022/05/26 05:56:59;;;;;;;0.85;0.40;;;14.30;99.90;;;;;;4992862;28;20030;-78
2022/05/26 05:59:25;;;;;;;1.33;0.50;;;14.30;99.90;;;;;;4999248;28;20033;-80
2022/05/26 06:01:51;;;;;;;0.55;0.55;;;14.50;99.90;;;;;;5000349;28;20072;-79
2022/05/26 06:04:16;;;;;;;1.23;0.40;;;14.70;99.90;;;;;;5013950;28;20033;-77
2022/05/26 06:06:43;;;;;;;1.30;0.50;;;14.90;99.90;;;;;;5000204;28;20045;-79
2022/05/26 06:09:13;;;;;;;1.83;0.50;;;15.20;99.90;;;;;;5017305;28;20053;-77
2022/05/26 06:11:40;;;;;;;2.05;0.60;;;15.40;99.90;;;;;;5010435;28;20093;-78
2022/05/26 06:14:06;;;;;;;4.03;0.50;;;15.60;99.90;;;;;;4992443;28;20289;-78
2022/05/26 06:16:32;;;;;;;1.65;0.30;;;15.80;99.90;;;;;;5009749;28;20065;-78
2022/05/26 06:18:58;;;;;;;2.30;0.50;;;15.80;99.90;;;;;;4995306;28;20026;-79
2022/05/26 06:21:24;;;;;;;0.73;0.40;;;15.70;99.90;;;;;;4993743;28;20053;-79
2022/05/26 06:23:56;;;;;;;0.43;0.30;;;15.70;99.90;;;;;;5012464;28;20069;-77
2022/05/26 06:26:28;;;;;;;0.30;0.30;;;15.70;99.90;;;;;;4983301;28;20072;-78
2022/05/26 06:37:13;;;;;;;1.45;0.45;;;15.70;99.90;;;;;;5002064;28;20026;-77
2022/05/26 06:37:16;;;;;;;0.63;0.38;;;16.20;99.90;;;;;;5027839;28;20033;-77
2022/05/26 06:39:42;;;;;;;0.65;0.40;;;16.50;99.90;;;;;;4996631;28;20038;-78
2022/05/26 06:42:09;;;;;;;0.47;0.45;;;16.70;99.90;;;;;;4980521;28;20029;-78
2022/05/26 06:44:44;;;;;;;0.30;0.30;;;16.70;99.90;;;;;;4998261;28;20042;-78
2022/05/26 06:47:19;;;;;;;0.65;0.40;;;16.60;99.90;;;;;;5025117;28;20033;-78
2022/05/26 06:49:45;;;;;;;1.13;0.50;;;16.50;99.90;;;;;;4995560;28;20038;-79
2022/05/26 06:52:13;;;;;;;0.30;0.30;;;16.50;99.90;;;;;;5008725;28;20393;-77
2022/05/26 06:54:43;;;;;;;1.65;0.30;;;16.40;99.90;;;;;;4995861;28;20484;-78
2022/05/26 06:57:10;;;;;;;2.78;0.40;;;16.50;99.90;;;;;;5004959;28;20108;-78
2022/05/26 06:59:37;;;;;;;1.40;0.40;;;16.50;99.90;;;;;;5002776;28;20038;-79
2022/05/26 07:02:05;;;;;;;5.00;0.50;;;16.70;99.90;;;;;;4979218;28;20061;-78
2022/05/26 07:04:31;;;;;;;0.60;0.40;;;17.00;99.90;;;;;;4982338;28;20041;-78
2022/05/26 07:06:57;;;;;;;2.08;0.63;;;17.20;99.90;;;;;;5021196;28;20095;-79
2022/05/26 07:09:23;;;;;;;1.65;0.40;;;17.20;99.90;;;;;;4972588;28;20053;-78
2022/05/26 07:11:49;;;;;;;0.65;0.40;;;17.10;99.90;;;;;;5003305;28;20083;-77
2022/05/26 07:14:15;;;;;;;1.08;0.40;;;17.00;99.90;;;;;;5015515;28;20030;-78
2022/05/26 07:16:42;;;;;;;1.55;0.30;;;17.00;99.90;;;;;;4996315;28;20038;-79
2022/05/26 07:19:08;;;;;;;0.30;0.30;;;16.90;99.90;;;;;;4998265;28;20551;-78
2022/05/26 07:21:34;;;;;;;0.30;0.30;;;16.80;99.90;;;;;;4982731;28;20026;-77
2022/05/26 07:24:00;;;;;;;1.45;0.47;;;16.70;99.90;;;;;;5018910;28;20017;-79
2022/05/26 07:26:26;;;;;;;2.05;0.32;;;16.70;99.90;;;;;;5021080;28;20116;-79
2022/05/26 07:28:52;;;;;;;1.05;0.30;;;16.60;99.90;;;;;;5007984;28;20049;-79
2022/05/26 07:31:19;;;;;;;0.98;0.43;;;16.60;99.90;;;;;;5006643;28;20032;-78
2022/05/26 07:33:44;;;;;;;0.55;0.55;;;16.60;99.90;;;;;;4987582;28;20112;-77
2022/05/26 07:41:16;;;;;;;0.43;0.43;;;16.70;99.90;;;;;;4974273;28;20057;-78
2022/05/26 07:42:00;;;;;;;1.85;0.40;;;17.10;99.90;;;;;;4960008;28;20044;-78
2022/05/26 07:44:26;;;;;;;1.65;0.45;;;17.40;99.90;;;;;;4995690;28;20042;-80
2022/05/26 07:46:52;;;;;;;1.13;0.47;;;17.60;99.20;;;;;;5005914;28;20034;-78
2022/05/26 07:49:18;;;;;;;0.75;0.30;;;18.00;99.90;;;;;;5020121;28;20172;-78
2022/05/26 07:51:43;;;;;;;1.25;0.32;;;18.70;98.00;;;;;;4999248;28;20543;-79
2022/05/26 07:54:09;;;;;;;0.75;0.30;;;19.10;97.40;;;;;;5001240;28;20042;-78
2022/05/26 07:56:39;;;;;;;2.60;0.28;;;19.10;96.20;;;;;;5011536;28;20038;-78
2022/05/26 07:59:05;;;;;;;2.10;0.57;;;19.30;96.70;;;;;;4998341;28;20227;-79
2022/05/26 08:01:32;;;;;;;0.40;0.40;;;19.30;95.70;;;;;;4990895;28;20045;-77
2022/05/26 08:03:57;;;;;;;1.02;0.40;;;19.20;95.90;;;;;;5009560;28;20513;-77
2022/05/26 08:06:23;;;;;;;0.40;0.35;;;19.30;97.10;;;;;;5006309;28;20036;-78
2022/05/26 08:08:49;;;;;;;2.67;0.40;;;19.30;96.90;;;;;;4963439;28;20653;-78
2022/05/26 08:11:15;;;;;;;0.20;0.20;;;19.30;94.70;;;;;;4988090;28;20026;-78
2022/05/26 08:13:40;;;;;;;0.80;0.40;;;19.20;95.30;;;;;;4992357;28;20095;-80
2022/05/26 08:16:06;;;;;;;0.25;0.20;;;19.20;95.50;;;;;;4981488;28;20128;-81
2022/05/26 08:18:32;;;;;;;0.40;0.40;;;19.00;96.00;;;;;;5006393;28;20041;-79
2022/05/26 08:21:07;;;;;;;0.40;0.20;;;18.90;95.80;;;;;;4997137;28;20174;-80
2022/05/26 08:23:33;;;;;;;0.20;0.20;;;18.70;95.40;;;;;;4984074;28;20030;-80
2022/05/26 08:25:58;;;;;;;1.30;0.30;;;18.50;95.80;;;;;;4993018;28;20506;-80
2022/05/26 08:28:24;;;;;;;1.27;0.70;;;18.30;97.00;;;;;;4978904;28;20038;-79
2022/05/26 08:30:49;;;;;;;1.98;0.63;;;18.10;94.40;;;;;;4983371;28;20034;-79
2022/05/26 08:33:15;;;;;;;0.20;0.20;;;18.10;96.80;;;;;;4983034;28;20025;-79
2022/05/26 08:35:41;;;;;;;0.20;0.20;;;18.00;96.30;;;;;;4977960;28;20030;-77
2022/05/26 08:38:06;;;;;;;1.85;0.30;;;17.90;97.50;;;;;;5016086;28;20427;-78
2022/05/26 08:40:35;;;;;;;2.20;0.40;;;17.80;98.00;;;;;;5007822;28;20080;-77
2022/05/26 08:43:04;;;;;;;0.80;0.30;;;17.80;97.90;;;;;;4993479;28;20684;-79
2022/05/26 08:45:33;;;;;;;0.73;0.40;;;17.70;98.60;;;;;;5001334;28;20034;-76
2022/05/26 08:47:59;;;;;;;1.85;0.40;;;17.60;98.10;;;;;;4994375;28;20034;-78
2022/05/26 08:50:32;;;;;;;3.50;0.40;;;17.50;98.60;;;;;;4992649;28;20042;-78
2022/05/26 08:53:18;;;;;;;0.30;0.30;;;17.50;98.90;;;;;;5009372;28;20696;-78
2022/05/26 08:55:45;;;;;;;;;;;17.50;99.10;;;;;;5001747;28;20026;-78
2022/05/26 08:58:20;;;;;;;0.65;0.22;;;17.60;98.70;;;;;;4996351;28;19932;-78
2022/05/26 09:00:47;;;;;;;;;;;17.90;98.80;;;;;;5006367;28;20552;-78
2022/05/26 09:03:34;;;;;;;0.20;0.20;;;18.10;98.00;;;;;;4994831;28;20410;-79
2022/05/26 09:06:08;;;;;;;1.10;0.30;;;18.30;97.00;;;;;;4989987;28;20041;-78
2022/05/26 09:14:30;;;;;;;0.30;0.30;;;18.90;95.90;;;;;;4993307;28;20113;-79
2022/05/26 09:17:14;;;;;;;1.95;0.35;;;18.90;95.10;;;;;;5018096;28;20048;-78
2022/05/26 09:19:43;;;;;;;0.63;0.20;;;18.80;94.90;;;;;;5013177;28;20066;-78
2022/05/26 09:22:26;;;;;;;0.40;0.38;;;18.60;94.70;;;;;;5014889;28;20096;-78
2022/05/26 09:24:52;;;;;;;0.30;0.30;;;18.40;95.90;;;;;;5002107;28;20045;-78
2022/05/26 09:27:26;;;;;;;1.27;0.55;;;18.10;96.80;;;;;;4994285;28;20110;-79
2022/05/26 09:29:52;;;;;;;0.20;0.20;;;17.80;96.80;;;;;;4978416;28;20037;-78
2022/05/26 09:32:18;;;;;;;0.50;0.15;;;17.60;97.30;;;;;;5011101;28;20465;-78
2022/05/26 09:35:04;;;;;;;1.15;0.20;;;17.50;98.50;;;;;;5000963;28;20057;-78
2022/05/26 09:37:40;;;;;;;1.00;0.30;;;17.40;98.40;;;;;;5024240;28;20037;-78
2022/05/26 09:40:30;;;;;;;1.48;0.20;;;17.30;98.90;;;;;;5010422;28;20038;-78
2022/05/26 09:43:17;;;;;;;1.65;0.55;;;17.20;98.60;;;;;;5011981;28;20119;-78
2022/05/26 09:45:59;;;;;;;0.77;0.30;;;17.00;98.40;;;;;;4995166;28;20053;-77
2022/05/26 09:48:36;;;;;;;0.17;0.17;;;16.90;99.10;;;;;;5010563;28;20525;-78
2022/05/26 09:51:34;;;;;;;0.30;0.30;;;16.80;99.00;;;;;;5014091;28;20026;-78
2022/05/26 09:54:26;;;;;;;0.70;0.20;;;16.70;99.10;;;;;;4969444;28;20491;-77
2022/05/26 09:56:52;;;;;;;0.20;0.20;;;16.60;99.60;;;;;;4998548;28;20026;-77
2022/05/26 09:59:31;;;;;;;0.30;0.20;;;16.60;99.90;;;;;;5016129;28;20044;-78
2022/05/26 10:02:06;;;;;;;0.32;0.32;;;16.70;99.90;;;;;;5008306;28;20030;-77
2022/05/26 10:04:41;;;;;;;0.30;0.20;;;16.80;99.90;;;;;;5012114;28;20476;-77
2022/05/26 10:07:39;;;;;;;0.32;0.30;;;17.00;99.60;;;;;;5011223;28;20033;-78
2022/05/26 10:10:16;;;;;;;0.28;0.28;;;17.20;99.90;;;;;;4977465;28;20042;-77
2022/05/26 10:12:48;;;;;;;0.40;0.40;;;17.30;98.80;;;;;;5003818;28;20435;-78
2022/05/26 10:15:23;;;;;;;1.58;0.30;;;17.40;98.10;;;;;;4998006;28;20033;-78
2022/05/26 10:18:18;;;;;;;1.02;0.30;;;17.50;98.40;;;;;;5023995;28;20030;-78
2022/05/26 10:21:15;;;;;;;0.20;0.15;;;17.50;98.50;;;;;;4999944;28;20034;-77
2022/05/26 10:23:44;;;;;;;1.83;0.30;;;17.60;99.20;;;;;;5010917;28;20100;-78
2022/05/26 10:26:44;;;;;;;0.40;0.20;;;17.60;99.70;;;;;;5009555;28;20022;-78
2022/05/26 10:29:27;;;;;;;0.50;0.50;;;17.70;99.90;;;;;;5008792;28;20057;-77
2022/05/26 10:32:08;;;;;;;2.38;0.30;;;17.90;99.30;;;;;;5008783;28;20018;-78
2022/05/26 10:34:51;;;;;;;0.20;0.20;;;18.00;98.90;;;;;;4999366;28;20357;-77
2022/05/26 10:37:44;;;;;;;0.68;0.35;;;18.10;98.80;;;;;;4996785;28;20061;-77
2022/05/26 10:40:21;;;;;;;0.82;0.30;;;18.10;97.50;;;;;;5010115;28;20026;-78
2022/05/26 10:43:10;;;;;;;0.38;0.30;;;18.20;98.20;;;;;;5011359;28;20044;-77
2022/05/26 10:45:42;;;;;;;0.60;0.40;;;18.10;97.10;;;;;;5007665;28;20034;-77
2022/05/26 10:48:29;;;;;;;1.10;0.20;;;18.10;97.20;;;;;;5002499;28;20122;-78
2022/05/26 10:50:59;;;;;;;0.40;0.20;;;17.90;97.10;;;;;;5014560;28;20110;-78
2022/05/26 10:53:47;;;;;;;0.52;0.40;;;17.80;97.10;;;;;;5024138;28;20181;-77
2022/05/26 10:56:36;;;;;;;1.20;0.20;;;17.60;98.10;;;;;;4989105;28;20105;-78
2022/05/26 10:59:29;;;;;;;1.05;0.40;;;17.50;98.60;;;;;;4998166;28;20041;-77
2022/05/26 11:02:10;;;;;;;0.73;0.45;;;17.50;98.60;;;;;;5005592;28;20045;-77
2022/05/26 11:04:54;;;;;;;0.13;0.13;;;17.40;98.00;;;;;;5015865;28;20026;-78
2022/05/26 11:07:52;;;;;;;0.73;0.35;;;17.40;98.70;;;;;;4998717;28;20060;-78
2022/05/26 11:10:37;;;;;;;0.35;0.30;;;17.50;98.10;;;;;;5010247;28;20095;-78
2022/05/26 11:13:43;;;;;;;1.38;0.32;;;17.60;99.20;;;;;;5003990;28;20117;-78
2022/05/26 11:19:13;;;;;;;0.20;0.20;;;17.90;98.20;;;;;;5016686;28;20121;-78
2022/05/26 11:21:39;;;;;;;0.65;0.40;;;17.90;97.80;;;;;;5006433;28;20063;-78
2022/05/26 11:24:09;;;;;;;0.30;0.20;;;17.80;98.10;;;;;;5005589;28;20687;-78
2022/05/26 11:26:55;;;;;;;0.32;0.20;;;17.60;97.20;;;;;;4985748;28;20053;-78
2022/05/26 11:29:31;;;;;;;0.63;0.13;;;17.50;98.30;;;;;;4982435;28;20105;-78
2022/05/26 11:36:14;;;;;;;0.20;0.20;;;17.80;99.90;;;;;;5013441;28;20079;-77
2022/05/26 11:38:27;;;;;;;0.28;0.20;;;18.10;99.90;;;;;;4999973;28;20041;-78
2022/05/26 11:41:03;;;;;;;0.30;0.30;;;18.30;98.60;;;;;;4997559;28;20496;-79
2022/05/26 11:43:37;;;;;;;;;;;18.40;97.90;;;;;;5017115;28;20038;-78
2022/05/26 11:46:03;;;;;;;0.77;0.30;;;18.30;98.00;;;;;;5005625;28;19931;-78
2022/05/26 11:48:32;;;;;;;0.20;0.20;;;18.10;97.30;;;;;;4995589;28;20531;-78
2022/05/26 11:51:20;;;;;;;0.10;0.10;;;18.00;97.70;;;;;;4990488;28;20030;-78
2022/05/26 11:53:47;;;;;;;1.65;0.30;;;17.90;97.80;;;;;;4991630;28;20069;-78
2022/05/26 11:56:28;;;;;;;0.30;0.20;;;17.80;98.50;;;;;;5008264;28;20026;-78
2022/05/26 11:59:21;;;;;;;0.70;0.20;;;17.90;98.20;;;;;;5016496;28;20083;-77
2022/05/26 12:02:01;;;;;;;0.60;0.22;;;17.90;98.20;;;;;;5013439;28;20033;-77
2022/05/26 12:04:27;;;;;;;0.20;0.20;;;18.10;98.70;;;;;;5011806;28;20034;-78
2022/05/26 12:07:03;;;;;;;0.10;0.10;;;18.30;98.90;;;;;;5007912;28;20040;-77
2022/05/26 12:09:42;;;;;;;0.43;0.28;;;18.50;99.20;;;;;;5021774;28;20037;-78
2022/05/26 12:12:16;;;;;;;1.35;0.20;;;18.80;99.40;;;;;;4987478;28;20174;-77
2022/05/26 12:14:54;;;;;;;1.77;0.38;;;19.10;97.50;;;;;;4992522;28;20030;-76
2022/05/26 12:17:35;;;;;;;0.20;0.20;;;19.30;95.90;;;;;;4990764;28;20124;-78
2022/05/26 12:20:10;;;;;;;1.35;0.25;;;19.40;95.60;;;;;;4992093;28;20029;-77
2022/05/26 12:22:37;;;;;;;1.13;0.22;;;19.40;94.80;;;;;;5003965;28;20026;-77
2022/05/26 12:25:14;;;;;;;0.35;0.20;;;19.50;96.70;;;;;;5006194;28;20034;-77
2022/05/26 12:27:53;;;;;;;0.10;0.10;;;19.50;96.40;;;;;;5013447;28;20425;-78
2022/05/26 12:30:33;;;;;;;0.22;0.15;;;19.60;95.80;;;;;;5006313;28;20065;-78
2022/05/26 12:33:21;;;;;;;0.63;0.20;;;19.90;94.80;;;;;;5021257;28;20526;-77
2022/05/26 12:36:30;;;;;;;0.50;0.30;;;20.20;93.70;;;;;;5014761;28;20033;-76
2022/05/26 12:39:25;;;;;;;0.38;0.20;;;20.40;92.30;;;;;;5010923;28;20034;-77
2022/05/26 12:41:59;;;;;;;0.85;0.20;;;20.50;91.00;;;;;;5016217;28;20064;-77
2022/05/26 12:45:03;;;;;;;0.63;0.43;;;20.50;91.10;;;;;;5005665;28;20033;-78
2022/05/26 12:47:50;;;;;;;0.25;0.10;;;20.60;92.10;;;;;;4992550;28;20477;-77
2022/05/26 12:50:18;;;;;;;0.30;0.10;;;20.90;92.60;;;;;;5012108;28;20172;-78
2022/05/26 12:52:46;;;;;;;1.17;0.22;;;21.10;90.50;;;;;;5017750;28;20026;-76
2022/05/26 12:55:25;;;;;;;0.90;0.20;;;21.20;86.00;;;;;;5010862;28;20030;-77
2022/05/26 12:57:56;;;;;;;1.65;0.20;;;21.10;86.60;;;;;;5015764;28;20028;-78
2022/05/26 13:00:38;;;;;;;1.05;0.20;;;20.80;85.60;;;;;;5027763;28;20037;-77
2022/05/26 13:03:10;;;;;;;0.10;0.10;;;20.40;87.40;;;;;;5019171;28;20380;-76
2022/05/26 13:05:46;;;;;;;0.52;0.10;;;20.10;89.10;;;;;;5015731;28;20030;-77
2022/05/26 13:08:20;;;;;;;0.50;0.30;;;20.00;89.40;;;;;;5019143;28;20467;-76
2022/05/26 13:10:47;;;;;;;0.45;0.20;;;19.80;91.00;;;;;;5016784;28;20050;-76
2022/05/26 13:13:39;;;;;;;0.15;0.13;;;19.70;90.10;;;;;;5032463;28;20468;-77
2022/05/26 13:16:24;;;;;;;0.17;0.10;;;19.60;92.50;;;;;;5004572;28;20038;-76
2022/05/26 13:18:52;;;;;;;0.25;0.20;;;19.70;91.30;;;;;;5028457;28;20034;-78
2022/05/26 13:21:21;;;;;;;0.10;0.10;;;19.70;89.50;;;;;;5007093;28;20037;-77
2022/05/26 13:23:50;;;;;;;0.20;0.20;;;19.80;90.30;;;;;;4997024;28;20558;-77
2022/05/26 13:26:17;;;;;;;0.90;0.32;;;19.80;90.10;;;;;;5005023;28;20109;-77
2022/05/26 13:28:48;;;;;;;0.20;0.10;;;19.80;88.60;;;;;;5000821;28;20575;-76
2022/05/26 13:34:02;;;;;;;0.10;0.10;;;19.70;91.30;;;;;;5020520;28;20033;-75
2022/05/26 13:36:37;;;;;;;0.32;0.20;;;19.70;90.20;;;;;;5017776;28;20037;-77
2022/05/26 13:39:06;;;;;;;0.47;0.20;;;19.60;88.20;;;;;;5028132;28;20091;-77
2022/05/26 13:41:33;;;;;;;0.13;0.13;;;19.60;88.50;;;;;;5025776;28;20029;-76
2022/05/26 13:44:05;;;;;;;0.93;0.10;;;19.50;91.00;;;;;;5015470;28;20132;-78
2022/05/26 13:46:34;;;;;;;0.40;0.20;;;19.40;90.80;;;;;;5017631;28;20185;-78
2022/05/26 13:49:12;;;;;;;0.38;0.10;;;19.40;90.60;;;;;;5016251;28;20539;-77